Time;durP1;ratioP1;P1;durP2;ratioP2;P2;SDS_P1;SDS_P2;PMS_P1;PMS_P2;Temp;Humidity;BMP_temperature;BMP_pressure;BME280_temperature;BME280_humidity;BME280_pressure;Samples;Min_cycle;Max_cycle;Signal;HPM_P1;HPM_P2
2023/02/26 00:00:38;;;;;;;6.80;3.10;;;5.80;94.10;;;;;;5088446;28;20214;-71
2023/02/26 00:03:04;;;;;;;5.17;3.50;;;5.80;94.30;;;;;;5078635;28;20765;-71
2023/02/26 00:05:29;;;;;;;3.90;3.60;;;5.80;94.50;;;;;;5091617;28;20190;-71
2023/02/26 00:07:55;;;;;;;5.63;3.23;;;5.80;94.70;;;;;;5084430;28;20202;-70
2023/02/26 00:10:20;;;;;;;3.93;3.30;;;5.70;94.80;;;;;;5094022;28;20240;-70
2023/02/26 00:12:46;;;;;;;4.60;3.23;;;5.70;94.60;;;;;;5089454;28;20621;-71
2023/02/26 00:15:13;;;;;;;3.67;3.27;;;5.70;94.60;;;;;;5091015;28;20630;-71
2023/02/26 00:17:45;;;;;;;3.77;3.10;;;5.70;94.60;;;;;;5087444;28;20294;-71
2023/02/26 00:20:11;;;;;;;5.77;3.80;;;5.70;94.70;;;;;;5092547;28;20449;-71
2023/02/26 00:22:39;;;;;;;3.93;3.20;;;5.70;94.70;;;;;;5091670;28;21009;-72
2023/02/26 00:25:05;;;;;;;4.53;3.40;;;5.70;94.70;;;;;;5094269;28;20434;-71
2023/02/26 00:27:30;;;;;;;6.83;4.00;;;5.70;94.80;;;;;;5092192;28;20467;-71
2023/02/26 00:29:56;;;;;;;3.97;2.97;;;5.60;95.00;;;;;;5088350;28;21090;-71
2023/02/26 00:32:22;;;;;;;5.77;3.53;;;5.60;95.00;;;;;;5091181;28;20178;-71
2023/02/26 00:34:48;;;;;;;7.73;3.53;;;5.60;95.10;;;;;;5094827;27;20197;-71
2023/02/26 00:37:19;;;;;;;4.10;3.33;;;5.50;95.20;;;;;;5094128;28;20212;-71
2023/02/26 00:39:45;;;;;;;6.50;3.67;;;5.50;95.20;;;;;;5098858;27;20967;-71
2023/02/26 00:42:11;;;;;;;6.03;3.50;;;5.60;95.20;;;;;;5095682;27;20549;-71
2023/02/26 00:44:38;;;;;;;7.53;3.70;;;5.50;95.20;;;;;;5098180;27;20385;-71
2023/02/26 00:47:16;;;;;;;5.40;3.63;;;5.50;95.20;;;;;;5097202;27;20979;-71
2023/02/26 00:50:03;;;;;;;4.50;3.80;;;5.50;95.20;;;;;;5098022;27;20873;-71
2023/02/26 00:52:38;;;;;;;5.30;3.40;;;5.40;95.90;;;;;;5095977;27;20446;-71
2023/02/26 00:55:04;;;;;;;4.60;3.47;;;5.40;95.50;;;;;;5091179;28;20963;-73
2023/02/26 00:57:29;;;;;;;6.97;3.53;;;5.40;95.50;;;;;;5096749;28;20459;-73
2023/02/26 00:59:55;;;;;;;4.47;3.07;;;5.40;95.50;;;;;;5091609;27;20446;-71
2023/02/26 01:02:21;;;;;;;4.27;3.20;;;5.30;95.50;;;;;;5095657;28;20452;-71
2023/02/26 01:04:47;;;;;;;4.60;3.20;;;5.30;95.60;;;;;;5095254;28;20602;-71
2023/02/26 01:07:14;;;;;;;5.00;3.53;;;5.30;95.80;;;;;;5094621;27;20198;-71
2023/02/26 01:09:39;;;;;;;6.00;3.47;;;5.20;95.90;;;;;;5090666;27;20434;-71
2023/02/26 01:12:11;;;;;;;4.73;3.47;;;5.20;95.80;;;;;;5083544;27;20932;-71
2023/02/26 01:14:38;;;;;;;4.07;3.13;;;5.20;95.70;;;;;;5090970;28;20287;-72
2023/02/26 01:17:15;;;;;;;5.07;3.17;;;5.20;95.90;;;;;;5071567;27;20555;-71
2023/02/26 01:19:45;;;;;;;6.00;3.33;;;5.10;96.00;;;;;;5074110;28;20430;-70
2023/02/26 01:22:45;;;;;;;9.50;3.10;;;5.10;95.90;;;;;;5091210;27;20940;-72
2023/02/26 01:25:15;;;;;;;5.53;3.67;;;5.10;96.00;;;;;;5096031;27;20428;-72
2023/02/26 01:27:40;;;;;;;4.60;3.77;;;5.10;96.00;;;;;;5094524;27;20459;-73
2023/02/26 01:30:07;;;;;;;4.43;3.23;;;5.10;96.10;;;;;;5100192;27;20439;-74
2023/02/26 01:32:51;;;;;;;4.50;3.57;;;5.00;96.30;;;;;;5098203;27;20201;-72
2023/02/26 01:35:31;;;;;;;4.37;3.67;;;5.00;96.40;;;;;;5090071;27;20969;-72
2023/02/26 01:38:05;;;;;;;3.87;3.23;;;5.00;96.60;;;;;;5087309;28;20543;-73
2023/02/26 01:40:58;;;;;;;5.77;4.33;;;5.00;96.70;;;;;;5093888;27;21022;-72
2023/02/26 01:43:34;;;;;;;4.43;3.70;;;5.00;96.90;;;;;;5093370;27;20978;-72
2023/02/26 01:46:05;;;;;;;5.07;3.47;;;5.00;96.90;;;;;;5095026;27;20487;-71
2023/02/26 01:48:48;;;;;;;4.70;3.33;;;5.00;96.90;;;;;;5092014;27;20447;-71
2023/02/26 01:51:14;;;;;;;5.80;3.57;;;4.90;96.80;;;;;;5094415;27;20423;-71
2023/02/26 01:53:39;;;;;;;4.57;4.07;;;5.00;97.00;;;;;;5095393;28;20945;-71
2023/02/26 01:56:12;;;;;;;4.90;3.90;;;4.90;97.00;;;;;;5094126;27;20205;-72
2023/02/26 01:58:38;;;;;;;5.90;3.30;;;4.90;97.10;;;;;;5091690;27;20178;-72
2023/02/26 02:01:04;;;;;;;5.33;3.43;;;4.90;97.10;;;;;;5091245;28;20485;-72
2023/02/26 02:03:34;;;;;;;4.03;3.37;;;4.90;97.20;;;;;;5094547;28;20542;-71
2023/02/26 02:06:05;;;;;;;3.90;3.60;;;4.80;97.20;;;;;;5091407;28;20989;-72
2023/02/26 02:08:34;;;;;;;6.17;3.73;;;4.80;97.20;;;;;;5092087;27;20492;-71
2023/02/26 02:11:02;;;;;;;3.87;3.20;;;4.80;97.30;;;;;;5073630;28;20458;-72
2023/02/26 02:13:36;;;;;;;7.37;3.97;;;4.80;97.30;;;;;;5094839;27;20443;-71
2023/02/26 02:16:16;;;;;;;5.00;3.13;;;4.80;97.40;;;;;;5087947;28;20448;-71
2023/02/26 02:18:58;;;;;;;6.77;3.73;;;4.80;97.30;;;;;;5089014;28;20494;-70
2023/02/26 02:21:59;;;;;;;5.90;3.20;;;4.80;97.30;;;;;;5091659;27;20469;-72
2023/02/26 02:24:53;;;;;;;4.97;3.50;;;4.70;97.50;;;;;;5090456;28;20438;-71
2023/02/26 02:27:36;;;;;;;4.30;3.63;;;4.70;97.50;;;;;;5065496;27;20830;-71
2023/02/26 02:30:49;;;;;;;4.37;3.60;;;4.70;97.60;;;;;;5091419;28;20580;-71
2023/02/26 02:33:22;;;;;;;5.23;4.03;;;4.70;97.60;;;;;;5096720;27;20446;-71
2023/02/26 02:35:56;;;;;;;8.17;6.57;;;4.70;97.60;;;;;;5092897;28;20500;-71
2023/02/26 02:38:29;;;;;;;11.30;6.57;;;4.70;97.60;;;;;;5091063;27;20488;-71
2023/02/26 02:41:21;;;;;;;7.40;5.83;;;4.70;97.60;;;;;;5092086;28;20557;-71
2023/02/26 02:43:49;;;;;;;7.37;5.43;;;4.60;97.70;;;;;;5090332;27;20475;-71
2023/02/26 02:46:27;;;;;;;7.60;4.03;;;4.60;97.80;;;;;;5093250;28;20455;-71
2023/02/26 02:49:03;;;;;;;9.50;6.37;;;4.60;97.90;;;;;;5090244;28;20447;-71
2023/02/26 02:51:47;;;;;;;10.40;6.23;;;4.60;97.90;;;;;;5093539;28;20500;-71
2023/02/26 02:54:23;;;;;;;6.43;5.03;;;4.60;97.90;;;;;;5090860;28;20444;-72
2023/02/26 02:56:59;;;;;;;8.83;6.70;;;4.60;98.00;;;;;;5088336;28;20516;-72
2023/02/26 02:59:34;;;;;;;10.53;6.87;;;4.60;98.00;;;;;;5092836;27;20479;-72
2023/02/26 03:02:12;;;;;;;8.23;4.77;;;4.60;98.10;;;;;;5091629;28;20580;-72
2023/02/26 03:04:39;;;;;;;10.10;5.60;;;4.60;98.10;;;;;;5088486;28;20578;-72
2023/02/26 03:07:05;;;;;;;7.20;5.10;;;4.60;98.00;;;;;;5077052;28;20498;-72
2023/02/26 03:09:32;;;;;;;7.03;5.33;;;4.60;98.10;;;;;;5088852;28;20933;-72
2023/02/26 03:11:57;;;;;;;9.67;6.77;;;4.60;98.10;;;;;;5091366;28;20192;-70
2023/02/26 03:14:23;;;;;;;11.13;7.37;;;4.60;98.10;;;;;;5091713;28;20447;-71
2023/02/26 03:17:10;;;;;;;8.17;5.97;;;4.60;98.10;;;;;;5091387;28;20201;-72
2023/02/26 03:20:06;;;;;;;6.20;5.30;;;4.60;98.10;;;;;;5087560;28;20491;-72
2023/02/26 03:22:43;;;;;;;7.03;4.60;;;4.60;98.10;;;;;;5090085;27;20467;-71
2023/02/26 03:25:29;;;;;;;5.47;4.20;;;4.50;98.00;;;;;;5093268;28;20423;-72
2023/02/26 03:28:05;;;;;;;7.43;4.13;;;4.50;98.10;;;;;;5090642;27;21308;-72
2023/02/26 03:30:45;;;;;;;5.13;4.60;;;4.50;98.10;;;;;;5092126;28;20431;-71
2023/02/26 03:33:21;;;;;;;11.37;4.23;;;4.40;98.30;;;;;;5090333;27;21106;-71
2023/02/26 03:35:49;;;;;;;5.60;4.20;;;4.40;98.10;;;;;;5088427;27;20527;-73
2023/02/26 03:38:31;;;;;;;6.80;4.57;;;4.40;98.30;;;;;;5073847;27;20538;-71
2023/02/26 03:41:05;;;;;;;7.07;5.07;;;4.40;98.20;;;;;;5090590;28;20513;-71
2023/02/26 03:43:46;;;;;;;7.13;5.17;;;4.40;98.20;;;;;;5093693;27;20446;-71
2023/02/26 03:46:16;;;;;;;7.33;4.03;;;4.30;98.30;;;;;;5088059;28;20504;-71
2023/02/26 03:48:43;;;;;;;7.93;4.13;;;4.30;98.40;;;;;;5093222;28;20432;-71
2023/02/26 03:51:11;;;;;;;4.33;3.77;;;4.30;98.40;;;;;;5092022;28;20533;-71
2023/02/26 03:53:55;;;;;;;7.10;3.80;;;4.30;98.50;;;;;;5088206;28;20501;-71
2023/02/26 03:56:29;;;;;;;5.60;4.80;;;4.30;98.40;;;;;;5090519;28;20490;-71
2023/02/26 03:58:55;;;;;;;4.47;4.07;;;4.30;98.40;;;;;;5072947;28;20937;-72
2023/02/26 04:01:30;;;;;;;5.43;4.83;;;4.20;98.50;;;;;;5092138;28;20469;-72
2023/02/26 04:04:01;;;;;;;6.70;4.50;;;4.20;98.50;;;;;;5091946;28;20857;-71
2023/02/26 04:06:28;;;;;;;5.80;4.07;;;4.20;98.70;;;;;;5088989;28;20451;-71
2023/02/26 04:08:53;;;;;;;5.30;3.70;;;4.20;98.60;;;;;;5087432;28;20432;-71
2023/02/26 04:11:21;;;;;;;6.17;3.80;;;4.20;98.70;;;;;;5077005;28;20533;-71
2023/02/26 04:13:48;;;;;;;5.53;4.13;;;4.20;98.70;;;;;;5090452;28;20184;-70
2023/02/26 04:16:14;;;;;;;5.03;3.57;;;4.10;98.80;;;;;;5092146;28;20447;-72
2023/02/26 04:18:40;;;;;;;5.40;4.00;;;4.10;99.00;;;;;;5086414;28;20440;-72
2023/02/26 04:21:05;;;;;;;6.53;4.07;;;4.10;98.90;;;;;;5089017;28;20270;-72
2023/02/26 04:23:31;;;;;;;4.23;3.77;;;4.10;98.90;;;;;;5090173;28;20440;-72
2023/02/26 04:25:57;;;;;;;6.07;4.20;;;4.10;99.00;;;;;;5090647;28;21358;-71
2023/02/26 04:28:22;;;;;;;6.93;4.73;;;4.00;99.00;;;;;;5091651;28;20946;-71
2023/02/26 04:30:48;;;;;;;6.33;4.03;;;4.00;99.10;;;;;;5094086;28;20281;-71
2023/02/26 04:33:15;;;;;;;5.77;4.07;;;4.00;99.10;;;;;;5088094;28;20228;-71
2023/02/26 04:35:41;;;;;;;5.70;4.50;;;4.00;99.20;;;;;;5073075;28;20218;-71
2023/02/26 04:38:06;;;;;;;5.40;4.00;;;4.00;99.10;;;;;;5090792;28;20483;-71
2023/02/26 04:40:32;;;;;;;4.80;4.17;;;3.90;99.30;;;;;;5088560;28;20443;-70
2023/02/26 04:42:57;;;;;;;5.97;4.20;;;3.90;99.40;;;;;;5087523;28;20856;-71
2023/02/26 04:45:23;;;;;;;7.63;3.90;;;3.90;99.40;;;;;;5088406;28;21150;-72
2023/02/26 04:47:48;;;;;;;4.70;3.70;;;3.90;99.40;;;;;;5091027;28;20197;-72
2023/02/26 04:50:14;;;;;;;8.00;4.67;;;3.90;99.50;;;;;;5090730;28;20244;-72
2023/02/26 04:52:40;;;;;;;8.33;4.27;;;3.90;99.60;;;;;;5072319;28;20193;-72
2023/02/26 04:55:06;;;;;;;6.37;4.67;;;3.90;99.60;;;;;;5095239;28;20193;-72
2023/02/26 04:57:32;;;;;;;7.23;4.03;;;3.90;99.70;;;;;;5087033;28;20205;-72
2023/02/26 04:59:57;;;;;;;6.77;4.13;;;3.90;99.80;;;;;;5088520;28;20443;-71
2023/02/26 05:02:23;;;;;;;7.30;4.53;;;3.80;99.70;;;;;;5091882;28;20691;-70
2023/02/26 05:04:49;;;;;;;6.97;4.73;;;3.80;99.70;;;;;;5089972;28;20254;-71
2023/02/26 05:07:14;;;;;;;5.37;4.80;;;3.80;99.80;;;;;;5069092;28;20198;-71
2023/02/26 05:09:40;;;;;;;6.97;4.13;;;3.80;99.80;;;;;;5090580;28;20186;-71
2023/02/26 05:12:05;;;;;;;7.17;4.23;;;3.80;99.90;;;;;;5089362;28;20554;-72
2023/02/26 05:14:31;;;;;;;8.03;4.03;;;3.80;99.90;;;;;;5092647;28;20182;-71
2023/02/26 05:16:56;;;;;;;5.27;4.23;;;3.80;99.90;;;;;;5087024;28;20237;-72
2023/02/26 05:19:23;;;;;;;5.13;3.80;;;3.70;99.90;;;;;;5098674;27;20186;-72
2023/02/26 05:21:49;;;;;;;6.17;4.30;;;3.70;99.90;;;;;;5072388;28;20271;-71
2023/02/26 05:24:15;;;;;;;6.03;4.43;;;3.70;99.90;;;;;;5094185;27;20439;-71
2023/02/26 05:26:40;;;;;;;5.23;4.37;;;3.70;99.90;;;;;;5089960;28;20471;-71
2023/02/26 05:29:06;;;;;;;7.57;4.33;;;3.70;99.90;;;;;;5094247;27;20447;-71
2023/02/26 05:31:32;;;;;;;4.20;3.73;;;3.70;99.90;;;;;;5094346;28;20295;-71
2023/02/26 05:33:57;;;;;;;5.37;3.93;;;3.70;99.90;;;;;;5092329;28;20190;-71
2023/02/26 05:36:23;;;;;;;7.57;4.40;;;3.70;99.90;;;;;;5095057;27;20401;-70
2023/02/26 05:38:48;;;;;;;5.70;4.27;;;3.70;99.90;;;;;;5077415;28;20197;-72
2023/02/26 05:41:14;;;;;;;5.73;4.47;;;3.70;99.90;;;;;;5096936;27;20202;-71
2023/02/26 05:43:40;;;;;;;6.57;4.60;;;3.60;99.90;;;;;;5094371;27;20561;-71
2023/02/26 05:46:06;;;;;;;6.53;4.83;;;3.60;99.90;;;;;;5091328;28;20673;-73
2023/02/26 05:48:32;;;;;;;6.20;4.27;;;3.60;99.90;;;;;;5094493;28;20437;-72
2023/02/26 05:50:58;;;;;;;9.23;4.17;;;3.60;99.90;;;;;;5073828;27;20447;-72
2023/02/26 05:53:23;;;;;;;4.87;4.30;;;3.60;99.90;;;;;;5094851;28;20939;-72
2023/02/26 05:55:49;;;;;;;6.20;4.00;;;3.60;99.90;;;;;;5090873;28;20185;-72
2023/02/26 05:58:15;;;;;;;8.10;3.90;;;3.60;99.90;;;;;;5090489;28;20186;-70
2023/02/26 06:00:41;;;;;;;10.43;4.90;;;3.50;99.90;;;;;;5092140;28;20400;-71
2023/02/26 06:03:06;;;;;;;6.00;4.23;;;3.50;99.90;;;;;;5091757;28;20480;-70
2023/02/26 06:05:32;;;;;;;5.27;4.50;;;3.50;99.90;;;;;;5096961;27;20177;-70
2023/02/26 06:07:58;;;;;;;6.00;4.20;;;3.50;99.90;;;;;;5090393;28;20210;-71
2023/02/26 06:10:23;;;;;;;9.17;5.00;;;3.40;99.90;;;;;;5090206;27;20181;-71
2023/02/26 06:12:49;;;;;;;5.13;4.60;;;3.40;99.90;;;;;;5096278;27;20250;-71
2023/02/26 06:15:14;;;;;;;6.87;4.30;;;3.40;99.90;;;;;;5075234;28;20181;-70
2023/02/26 06:17:40;;;;;;;10.90;5.30;;;3.40;99.90;;;;;;5092484;28;20214;-71
2023/02/26 06:20:06;;;;;;;5.80;4.70;;;3.40;99.90;;;;;;5093192;28;20193;-70
2023/02/26 06:22:32;;;;;;;7.67;5.20;;;3.40;99.90;;;;;;5095349;28;20672;-70
2023/02/26 06:24:57;;;;;;;7.30;4.07;;;3.50;99.90;;;;;;5093313;27;20472;-70
2023/02/26 06:27:24;;;;;;;8.63;4.57;;;3.50;99.90;;;;;;5096146;27;20299;-70
2023/02/26 06:29:49;;;;;;;6.43;4.93;;;3.40;99.90;;;;;;5091564;28;20190;-70
2023/02/26 06:32:15;;;;;;;4.97;4.47;;;3.50;99.90;;;;;;5095699;28;20940;-70
2023/02/26 06:34:40;;;;;;;7.57;4.33;;;3.40;99.90;;;;;;5091328;28;20196;-72
2023/02/26 06:37:06;;;;;;;7.07;5.00;;;3.50;99.90;;;;;;5087980;28;20626;-72
2023/02/26 06:39:32;;;;;;;4.87;4.23;;;3.50;99.90;;;;;;5093002;27;20194;-72
2023/02/26 06:41:57;;;;;;;5.70;4.23;;;3.40;99.90;;;;;;5074353;28;20209;-72
2023/02/26 06:44:23;;;;;;;7.27;3.60;;;3.40;99.90;;;;;;5094212;27;20234;-71
2023/02/26 06:46:48;;;;;;;7.23;4.77;;;3.50;99.90;;;;;;5091766;28;20202;-72
2023/02/26 06:49:14;;;;;;;5.30;4.10;;;3.50;99.90;;;;;;5087192;28;20186;-72
2023/02/26 06:51:40;;;;;;;7.10;4.57;;;3.50;99.90;;;;;;5091770;27;20212;-73
2023/02/26 06:54:05;;;;;;;7.67;4.10;;;3.50;99.90;;;;;;5090403;27;20191;-73
2023/02/26 06:56:31;;;;;;;10.10;4.60;;;3.50;99.90;;;;;;5086235;28;20214;-73
2023/02/26 06:58:56;;;;;;;4.80;4.10;;;3.50;99.90;;;;;;5094513;27;20558;-72
2023/02/26 07:01:23;;;;;;;10.50;4.80;;;3.40;99.90;;;;;;5074802;28;20220;-72
2023/02/26 07:03:48;;;;;;;7.07;4.13;;;3.40;99.90;;;;;;5091260;27;20174;-71
2023/02/26 07:06:14;;;;;;;10.20;5.07;;;3.40;99.90;;;;;;5086195;27;20478;-72
2023/02/26 07:08:40;;;;;;;8.13;4.20;;;3.40;99.90;;;;;;5090916;27;20586;-72
2023/02/26 07:11:07;;;;;;;10.70;4.70;;;3.50;99.90;;;;;;5091275;27;20435;-72
2023/02/26 07:13:33;;;;;;;11.13;4.90;;;3.50;99.90;;;;;;5091576;28;20182;-73
2023/02/26 07:15:58;;;;;;;4.80;4.07;;;3.50;99.90;;;;;;5070110;28;20490;-72
2023/02/26 07:18:24;;;;;;;9.73;4.60;;;3.60;99.90;;;;;;5088999;28;20182;-72
2023/02/26 07:20:50;;;;;;;6.53;4.80;;;3.60;99.90;;;;;;5090701;28;20209;-72
2023/02/26 07:23:15;;;;;;;9.13;5.00;;;3.50;99.90;;;;;;5092491;28;20183;-72
2023/02/26 07:25:41;;;;;;;12.60;4.70;;;3.60;99.90;;;;;;5090320;27;20189;-71
2023/02/26 07:28:07;;;;;;;9.67;5.10;;;3.60;99.90;;;;;;5088792;28;20439;-72
2023/02/26 07:30:33;;;;;;;8.00;5.10;;;3.60;99.90;;;;;;5090440;28;20265;-71
2023/02/26 07:32:58;;;;;;;7.13;4.80;;;3.60;99.90;;;;;;5089068;28;20924;-71
2023/02/26 07:35:24;;;;;;;7.17;4.80;;;3.60;99.90;;;;;;5089660;28;20445;-71
2023/02/26 07:37:51;;;;;;;8.00;5.10;;;3.60;99.90;;;;;;5085059;28;20210;-72
2023/02/26 07:40:17;;;;;;;8.07;5.50;;;3.60;99.90;;;;;;5093303;28;20643;-70
2023/02/26 07:42:43;;;;;;;7.20;4.77;;;3.70;99.90;;;;;;5086398;28;20482;-70
2023/02/26 07:45:09;;;;;;;9.13;5.17;;;3.70;99.90;;;;;;5088700;28;20447;-71
2023/02/26 07:47:35;;;;;;;6.37;4.17;;;3.80;99.90;;;;;;5069937;28;20214;-70
2023/02/26 07:50:00;;;;;;;7.90;4.90;;;3.80;99.90;;;;;;5073721;28;20442;-71
2023/02/26 07:52:26;;;;;;;9.33;4.77;;;3.80;99.90;;;;;;5088944;28;20652;-71
2023/02/26 07:54:51;;;;;;;7.07;5.27;;;3.80;99.90;;;;;;5091315;27;20190;-71
2023/02/26 07:57:18;;;;;;;7.30;4.30;;;3.90;99.90;;;;;;5091037;28;20220;-71
2023/02/26 07:59:44;;;;;;;6.70;4.33;;;3.90;99.90;;;;;;5089145;28;20188;-71
2023/02/26 08:02:11;;;;;;;6.50;4.13;;;3.90;99.90;;;;;;5092638;28;20468;-71
2023/02/26 08:04:37;;;;;;;9.40;4.50;;;4.00;99.90;;;;;;5076123;28;20186;-71
2023/02/26 08:07:03;;;;;;;6.77;4.60;;;4.00;99.90;;;;;;5086559;28;20832;-72
2023/02/26 08:09:29;;;;;;;9.20;5.00;;;4.00;99.90;;;;;;5091217;28;20368;-73
2023/02/26 08:11:55;;;;;;;13.13;4.67;;;4.00;99.90;;;;;;5089400;28;20436;-72
2023/02/26 08:14:21;;;;;;;6.00;3.90;;;4.00;99.90;;;;;;5091366;28;20477;-72
2023/02/26 08:16:47;;;;;;;5.10;4.20;;;4.00;99.90;;;;;;5090807;28;20866;-72
2023/02/26 08:19:13;;;;;;;7.57;4.30;;;4.00;99.90;;;;;;5059084;28;20444;-71
2023/02/26 08:21:38;;;;;;;6.90;4.13;;;4.10;99.90;;;;;;5090336;28;20463;-72
2023/02/26 08:24:04;;;;;;;8.50;4.73;;;4.20;99.90;;;;;;5076117;28;20754;-71
2023/02/26 08:26:30;;;;;;;11.20;3.93;;;4.20;99.90;;;;;;5092204;28;20210;-72
2023/02/26 08:28:55;;;;;;;4.80;3.63;;;4.20;99.90;;;;;;5087663;28;20605;-72
2023/02/26 08:31:21;;;;;;;12.27;6.83;;;4.30;99.90;;;;;;5091699;28;20182;-72
2023/02/26 08:33:46;;;;;;;8.90;5.17;;;4.30;99.90;;;;;;5091801;28;22385;-71
2023/02/26 08:36:13;;;;;;;5.70;3.93;;;4.20;99.90;;;;;;5083306;28;20650;-73
2023/02/26 08:38:39;;;;;;;5.20;4.13;;;4.30;99.90;;;;;;5077554;28;20177;-74
2023/02/26 08:41:05;;;;;;;4.30;3.80;;;4.40;99.90;;;;;;5088086;28;20491;-74
2023/02/26 08:43:30;;;;;;;8.13;4.50;;;4.40;99.90;;;;;;5092576;28;20435;-74
2023/02/26 08:45:57;;;;;;;13.10;5.70;;;4.50;99.90;;;;;;5085763;28;20187;-72
2023/02/26 08:48:23;;;;;;;9.27;3.50;;;4.60;99.90;;;;;;5096354;28;20177;-72
2023/02/26 08:50:49;;;;;;;5.73;3.10;;;4.50;99.90;;;;;;5089639;28;21064;-72
2023/02/26 08:53:15;;;;;;;4.93;2.90;;;4.60;99.90;;;;;;5096254;27;20422;-72
2023/02/26 08:55:40;;;;;;;7.60;3.53;;;4.50;99.90;;;;;;5098825;27;20428;-72
2023/02/26 08:58:06;;;;;;;5.00;3.40;;;4.60;99.90;;;;;;5090210;27;20186;-74
2023/02/26 09:00:32;;;;;;;3.97;3.10;;;4.60;99.90;;;;;;5091416;28;20235;-76
2023/02/26 09:02:58;;;;;;;5.47;3.27;;;4.70;99.90;;;;;;5090140;27;20270;-70
2023/02/26 09:05:24;;;;;;;5.67;3.70;;;4.70;99.90;;;;;;5093882;27;20523;-71
2023/02/26 09:07:50;;;;;;;4.27;3.20;;;4.70;99.90;;;;;;5084852;28;20202;-72
2023/02/26 09:10:16;;;;;;;8.87;3.20;;;4.70;99.90;;;;;;5093762;27;20427;-71
2023/02/26 09:12:42;;;;;;;6.33;3.40;;;4.70;99.90;;;;;;5078661;28;20434;-74
2023/02/26 09:15:09;;;;;;;7.40;3.60;;;4.60;99.90;;;;;;5091812;27;20798;-71
2023/02/26 09:17:36;;;;;;;5.47;3.87;;;4.70;99.90;;;;;;5093164;27;20540;-77
2023/02/26 09:20:03;;;;;;;5.47;3.33;;;4.70;99.90;;;;;;5093467;27;20439;-76
2023/02/26 09:22:28;;;;;;;8.23;4.53;;;4.70;99.90;;;;;;5090731;27;20986;-72
2023/02/26 09:24:54;;;;;;;4.90;3.37;;;4.80;99.90;;;;;;5089296;27;20495;-72
2023/02/26 09:27:20;;;;;;;5.77;3.50;;;4.80;99.90;;;;;;5090956;27;20274;-74
2023/02/26 09:29:46;;;;;;;4.60;3.00;;;4.80;99.90;;;;;;5095635;27;20204;-74
2023/02/26 09:32:11;;;;;;;3.83;3.43;;;4.80;99.90;;;;;;5076605;28;20430;-70
2023/02/26 09:34:37;;;;;;;4.23;3.17;;;4.90;99.90;;;;;;5081677;28;20270;-70
2023/02/26 09:37:08;;;;;;;4.00;3.07;;;4.90;99.90;;;;;;5086821;27;20234;-77
2023/02/26 09:39:34;;;;;;;5.50;3.43;;;5.00;99.90;;;;;;5092873;27;20468;-72
2023/02/26 09:42:15;;;;;;;4.80;3.43;;;5.00;99.90;;;;;;5076823;28;21286;-70
2023/02/26 09:44:40;;;;;;;7.27;3.43;;;5.00;99.90;;;;;;5092598;27;20800;-70
2023/02/26 09:47:17;;;;;;;11.70;3.90;;;5.00;99.90;;;;;;5089700;28;20466;-71
2023/02/26 09:49:43;;;;;;;4.03;3.63;;;5.10;99.90;;;;;;5096854;27;20431;-71
2023/02/26 09:52:17;;;;;;;6.70;3.40;;;5.10;99.90;;;;;;5070841;28;20434;-70
2023/02/26 09:54:46;;;;;;;5.80;3.67;;;5.10;99.90;;;;;;5090356;27;20238;-70
2023/02/26 09:57:23;;;;;;;8.40;4.20;;;5.20;99.90;;;;;;5090708;28;21691;-70
2023/02/26 09:59:50;;;;;;;7.00;2.83;;;5.20;99.90;;;;;;5091411;27;20475;-71
2023/02/26 10:02:30;;;;;;;3.17;2.70;;;5.10;99.90;;;;;;5093477;27;20466;-71
2023/02/26 10:05:17;;;;;;;4.27;3.00;;;5.10;99.90;;;;;;5092497;27;20432;-71
2023/02/26 10:08:11;;;;;;;4.40;3.47;;;5.10;99.90;;;;;;5094785;27;20509;-71
2023/02/26 10:10:48;;;;;;;7.07;2.90;;;5.20;99.90;;;;;;5074902;28;20931;-70
2023/02/26 10:13:43;;;;;;;5.27;3.23;;;5.20;99.90;;;;;;5095129;27;20428;-70
2023/02/26 10:16:18;;;;;;;5.47;3.30;;;5.20;99.90;;;;;;5090689;28;20447;-71
2023/02/26 10:18:52;;;;;;;4.97;2.90;;;5.20;99.90;;;;;;5091755;27;20466;-71
2023/02/26 10:21:33;;;;;;;3.67;2.67;;;5.20;99.90;;;;;;5088483;28;20495;-70
2023/02/26 10:24:03;;;;;;;3.00;2.63;;;5.20;99.90;;;;;;5090342;28;20440;-71
2023/02/26 10:26:43;;;;;;;5.00;3.03;;;5.20;99.90;;;;;;5091710;28;20532;-71
2023/02/26 10:29:36;;;;;;;2.70;2.47;;;5.20;99.90;;;;;;5093689;27;20526;-72
2023/02/26 10:32:24;;;;;;;4.07;2.90;;;5.10;99.90;;;;;;5095079;28;20451;-70
2023/02/26 10:34:55;;;;;;;5.23;3.33;;;5.00;99.90;;;;;;5088122;27;20440;-70
2023/02/26 10:37:56;;;;;;;4.70;3.40;;;5.00;99.90;;;;;;5088674;27;20456;-70
2023/02/26 10:40:43;;;;;;;5.90;3.40;;;5.00;99.90;;;;;;5094702;28;20515;-70
2023/02/26 10:43:34;;;;;;;3.50;2.80;;;5.10;99.90;;;;;;5088735;28;20465;-70
2023/02/26 10:46:26;;;;;;;3.27;2.83;;;5.10;99.90;;;;;;5090615;28;20535;-70
2023/02/26 10:49:19;;;;;;;3.23;2.70;;;5.20;99.90;;;;;;5077892;27;20488;-70
2023/02/26 10:51:45;;;;;;;3.63;2.43;;;5.30;99.90;;;;;;5092130;28;20423;-70
2023/02/26 10:54:17;;;;;;;4.47;3.50;;;5.30;99.90;;;;;;5087221;28;20803;-70
2023/02/26 10:56:42;;;;;;;3.70;3.13;;;5.20;99.90;;;;;;5090110;28;20832;-70
2023/02/26 10:59:08;;;;;;;3.00;2.33;;;5.20;99.90;;;;;;5089161;27;20496;-70
2023/02/26 11:01:35;;;;;;;6.20;3.83;;;5.20;99.90;;;;;;5091641;27;20209;-70
2023/02/26 11:04:08;;;;;;;3.50;2.37;;;5.30;99.90;;;;;;5071819;27;20178;-70
2023/02/26 11:06:41;;;;;;;7.10;3.00;;;5.30;99.90;;;;;;5091599;27;20451;-70
2023/02/26 11:09:17;;;;;;;4.23;2.83;;;5.30;99.90;;;;;;5089439;27;20471;-70
2023/02/26 11:12:06;;;;;;;3.20;2.30;;;5.30;99.90;;;;;;5090642;27;20446;-70
2023/02/26 11:14:33;;;;;;;7.13;2.90;;;5.20;99.90;;;;;;5090625;27;20539;-70
2023/02/26 11:17:03;;;;;;;3.97;2.80;;;5.30;99.90;;;;;;5089731;27;20922;-71
2023/02/26 11:19:43;;;;;;;3.40;2.27;;;5.30;99.90;;;;;;5095775;27;20431;-70
2023/02/26 11:22:13;;;;;;;2.70;2.20;;;5.30;99.90;;;;;;5094513;27;21125;-70
2023/02/26 11:24:46;;;;;;;2.63;2.30;;;5.40;99.90;;;;;;5090589;27;20433;-74
2023/02/26 11:27:17;;;;;;;2.83;2.33;;;5.50;99.90;;;;;;5083246;27;20455;-69
2023/02/26 11:29:47;;;;;;;2.47;2.07;;;5.60;99.90;;;;;;5088434;27;20811;-72
2023/02/26 11:32:19;;;;;;;4.10;2.67;;;5.50;99.30;;;;;;5084037;27;20532;-72
2023/02/26 11:34:49;;;;;;;4.90;2.30;;;5.50;99.40;;;;;;5087947;27;20435;-71
2023/02/26 11:37:30;;;;;;;2.50;2.27;;;5.60;99.40;;;;;;5068322;27;20501;-70
2023/02/26 11:39:58;;;;;;;3.60;2.73;;;5.50;99.60;;;;;;5059686;28;20443;-70
2023/02/26 11:42:26;;;;;;;4.10;2.30;;;5.60;99.80;;;;;;5085272;28;20459;-69
2023/02/26 11:44:52;;;;;;;3.53;2.10;;;5.60;99.90;;;;;;5071571;27;20445;-70
2023/02/26 11:47:22;;;;;;;2.93;2.20;;;5.60;99.80;;;;;;5089533;27;20540;-70
2023/02/26 11:49:54;;;;;;;4.87;2.60;;;5.60;99.80;;;;;;5089156;28;20443;-70
2023/02/26 11:52:31;;;;;;;6.40;2.43;;;5.50;99.90;;;;;;5088447;27;20539;-70
2023/02/26 11:55:02;;;;;;;4.93;3.63;;;5.60;99.90;;;;;;5088034;28;20443;-70
2023/02/26 11:57:29;;;;;;;3.83;2.70;;;5.50;99.90;;;;;;5088464;27;20447;-70
2023/02/26 11:59:59;;;;;;;2.50;2.27;;;5.60;99.90;;;;;;5067179;28;21277;-70
2023/02/26 12:02:30;;;;;;;3.33;2.80;;;5.50;99.90;;;;;;5088054;28;21056;-70
2023/02/26 12:05:00;;;;;;;4.43;3.23;;;5.60;99.90;;;;;;5088013;28;20435;-70
2023/02/26 12:07:27;;;;;;;4.30;3.23;;;5.70;99.90;;;;;;5088010;28;20913;-70
2023/02/26 12:09:52;;;;;;;2.77;2.47;;;5.70;99.90;;;;;;5087607;28;20443;-70
2023/02/26 12:12:52;;;;;;;5.10;2.57;;;5.70;99.90;;;;;;5086815;28;21847;-73
2023/02/26 12:15:31;;;;;;;3.70;2.83;;;5.70;99.90;;;;;;5089817;28;20633;-71
2023/02/26 12:18:22;;;;;;;4.90;2.87;;;5.70;99.90;;;;;;5072353;28;20512;-73
2023/02/26 12:21:12;;;;;;;2.93;2.50;;;5.70;99.90;;;;;;5091572;28;20443;-71
2023/02/26 12:24:38;;;;;;;2.60;2.40;;;5.80;99.90;;;;;;5089880;28;20436;-71
2023/02/26 12:27:19;;;;;;;2.60;2.20;;;5.80;99.80;;;;;;5012324;28;20458;-71
2023/02/26 12:29:50;;;;;;;3.37;2.20;;;5.80;99.70;;;;;;5017933;28;20862;-72
2023/02/26 12:32:37;;;;;;;3.50;2.20;;;5.80;99.60;;;;;;5063554;28;20438;-70
2023/02/26 12:35:32;;;;;;;3.17;2.50;;;5.80;99.50;;;;;;5079282;28;21013;-71
2023/02/26 12:38:12;;;;;;;4.10;2.33;;;6.00;99.40;;;;;;5094626;28;20464;-73
2023/02/26 12:40:55;;;;;;;2.43;1.97;;;5.90;99.20;;;;;;5095116;27;20632;-69
2023/02/26 12:43:49;;;;;;;5.53;2.77;;;5.90;99.30;;;;;;5093172;28;20436;-70
2023/02/26 12:46:57;;;;;;;4.00;2.67;;;5.90;99.30;;;;;;5085055;27;20566;-72
2023/02/26 12:49:44;;;;;;;3.57;2.33;;;5.80;99.80;;;;;;5094635;28;20841;-69
2023/02/26 12:52:27;;;;;;;3.47;2.30;;;5.90;99.40;;;;;;5094304;27;20434;-70
2023/02/26 12:55:28;;;;;;;3.83;2.63;;;6.00;99.30;;;;;;5094155;28;20960;-71
2023/02/26 12:58:18;;;;;;;4.43;2.83;;;5.90;99.40;;;;;;5093297;27;20486;-69
2023/02/26 13:00:58;;;;;;;6.00;2.87;;;6.00;99.20;;;;;;5094898;27;20852;-69
2023/02/26 13:03:42;;;;;;;3.13;2.60;;;6.00;99.20;;;;;;5095696;27;20482;-70
2023/02/26 13:06:07;;;;;;;3.20;2.70;;;6.00;99.30;;;;;;5091732;27;20450;-71
2023/02/26 13:08:42;;;;;;;3.47;2.03;;;6.00;99.60;;;;;;5092124;27;20435;-71
2023/02/26 13:11:29;;;;;;;2.37;2.13;;;6.00;99.40;;;;;;5090239;28;20266;-70
2023/02/26 13:14:04;;;;;;;2.40;2.10;;;5.90;99.80;;;;;;5091053;27;20567;-70
2023/02/26 13:16:54;;;;;;;2.83;2.10;;;5.90;99.90;;;;;;5092448;27;20765;-70